createdAt,value
2016-12-13T00:00:07.539Z,1023.43
2016-12-13T00:01:07.553Z,1023.42
2016-12-13T00:02:07.570Z,1023.42
2016-12-13T00:03:07.580Z,1023.38
2016-12-13T00:04:07.592Z,1023.39
2016-12-13T00:05:07.607Z,1023.4
2016-12-13T00:06:07.621Z,1023.4
2016-12-13T00:07:07.633Z,1023.41
2016-12-13T00:08:07.645Z,1023.37
2016-12-13T00:09:07.658Z,1023.38
2016-12-13T00:10:07.671Z,1023.38
2016-12-13T00:11:07.684Z,1023.36
2016-12-13T00:12:07.697Z,1023.36
2016-12-13T00:13:07.713Z,1023.44
2016-12-13T00:14:07.726Z,1023.41
2016-12-13T00:15:07.737Z,1023.39
2016-12-13T00:16:07.752Z,1023.41
2016-12-13T00:17:07.763Z,1023.45
2016-12-13T00:18:07.778Z,1023.41
2016-12-13T00:19:07.791Z,1023.39
2016-12-13T00:20:07.802Z,1023.42
2016-12-13T00:21:07.818Z,1023.47
2016-12-13T00:22:07.830Z,1023.41
2016-12-13T00:23:07.843Z,1023.44
2016-12-13T00:24:07.855Z,1023.43
2016-12-13T00:25:07.869Z,1023.48
2016-12-13T00:26:07.881Z,1023.48
2016-12-13T00:27:07.896Z,1023.47
2016-12-13T00:28:07.909Z,1023.47
2016-12-13T00:29:07.920Z,1023.46
2016-12-13T00:31:07.947Z,1023.49
2016-12-13T00:32:07.965Z,1023.46
2016-12-13T00:33:07.973Z,1023.51
2016-12-13T00:34:07.986Z,1023.44
2016-12-13T00:35:08.001Z,1023.46
2016-12-13T00:36:08.015Z,1023.46
2016-12-13T00:37:08.027Z,1023.45
2016-12-13T00:38:08.041Z,1023.45
2016-12-13T00:39:08.054Z,1023.42
2016-12-13T00:40:08.065Z,1023.42
2016-12-13T00:41:08.078Z,1023.47
2016-12-13T00:42:08.091Z,1023.45
2016-12-13T00:43:08.106Z,1023.45
2016-12-13T00:44:08.117Z,1023.46
2016-12-13T00:45:08.132Z,1023.44
2016-12-13T00:47:08.159Z,1023.43
2016-12-13T00:48:08.169Z,1023.47
2016-12-13T00:49:08.183Z,1023.46
2016-12-13T00:50:08.196Z,1023.44
2016-12-13T00:51:08.210Z,1023.43
2016-12-13T00:52:08.222Z,1023.43
2016-12-13T00:53:08.287Z,1023.45
2016-12-13T00:54:08.248Z,1023.49
2016-12-13T00:55:08.262Z,1023.5
2016-12-13T00:56:08.276Z,1023.44
2016-12-13T00:57:08.287Z,1023.4
2016-12-13T00:58:08.301Z,1023.41
2016-12-13T00:59:08.315Z,1023.39
2016-12-13T01:00:08.328Z,1023.42
2016-12-13T01:01:08.342Z,1023.39
2016-12-13T01:03:08.365Z,1023.37
2016-12-13T01:04:08.380Z,1023.33
2016-12-13T01:05:08.394Z,1023.32
2016-12-13T01:06:08.404Z,1023.34
2016-12-13T01:07:08.420Z,1023.32
2016-12-13T01:08:08.433Z,1023.36
2016-12-13T01:09:08.453Z,1023.37
2016-12-13T01:10:08.461Z,1023.4
2016-12-13T01:11:08.472Z,1023.39
2016-12-13T01:12:08.485Z,1023.36
2016-12-13T01:13:08.495Z,1023.35
2016-12-13T01:14:08.512Z,1023.31
2016-12-13T01:15:08.522Z,1023.33
2016-12-13T01:16:08.537Z,1023.28
2016-12-13T01:17:08.547Z,1023.22
2016-12-13T01:19:08.574Z,1023.17
2016-12-13T01:20:08.588Z,1023.21
2016-12-13T01:21:08.601Z,1023.19
2016-12-13T01:22:08.613Z,1023.16
2016-12-13T01:23:08.628Z,1023.17
2016-12-13T01:24:08.638Z,1023.16
2016-12-13T01:25:08.654Z,1023.16
2016-12-13T01:26:08.664Z,1023.13
2016-12-13T01:27:08.677Z,1023.1
2016-12-13T01:28:08.690Z,1023.09
2016-12-13T01:29:08.703Z,1023.11
2016-12-13T01:30:08.716Z,1023.11
2016-12-13T01:31:08.732Z,1023.07
2016-12-13T01:32:08.748Z,1023.05
2016-12-13T01:34:08.772Z,1023.12
2016-12-13T01:35:08.781Z,1023.11
2016-12-13T01:36:08.795Z,1023.14
2016-12-13T01:37:08.807Z,1023.18
2016-12-13T01:38:08.821Z,1023.18
2016-12-13T01:39:08.833Z,1023.18
2016-12-13T01:40:08.846Z,1023.16
2016-12-13T01:41:08.861Z,1023.14
2016-12-13T01:42:08.873Z,1023.15
2016-12-13T01:43:08.885Z,1023.12
2016-12-13T01:44:08.900Z,1023.12
2016-12-13T01:45:08.911Z,1023.11
2016-12-13T01:46:08.923Z,1023.06
2016-12-13T01:47:08.936Z,1023.06
2016-12-13T01:48:08.950Z,1022.99
2016-12-13T01:49:08.965Z,1022.93
2016-12-13T01:50:08.977Z,1022.92
2016-12-13T01:51:08.988Z,1022.9
2016-12-13T01:52:09.004Z,1022.82
2016-12-13T01:53:09.015Z,1022.85
2016-12-13T01:54:09.027Z,1022.82
2016-12-13T01:55:09.042Z,1022.81
2016-12-13T01:56:09.055Z,1022.77
2016-12-13T01:57:09.067Z,1022.78
2016-12-13T01:58:09.078Z,1022.77
2016-12-13T01:59:09.094Z,1022.78
2016-12-13T02:00:09.107Z,1022.72
2016-12-13T02:01:09.119Z,1022.71
2016-12-13T02:02:09.132Z,1022.68
2016-12-13T02:03:09.144Z,1022.71
2016-12-13T02:04:09.155Z,1022.69
2016-12-13T02:06:09.184Z,1022.66
2016-12-13T02:07:09.197Z,1022.68
2016-12-13T02:08:09.208Z,1022.72
2016-12-13T02:09:09.223Z,1022.71
2016-12-13T02:10:09.234Z,1022.67
2016-12-13T02:11:09.249Z,1022.65
2016-12-13T02:12:09.261Z,1022.63
2016-12-13T02:13:09.274Z,1022.62
2016-12-13T02:14:09.286Z,1022.63
2016-12-13T02:15:09.299Z,1022.63
2016-12-13T02:16:09.311Z,1022.6
2016-12-13T02:17:09.324Z,1022.56
2016-12-13T02:18:09.337Z,1022.48
2016-12-13T02:19:09.351Z,1022.48
2016-12-13T02:20:09.364Z,1022.49
2016-12-13T02:22:09.391Z,1022.47
2016-12-13T02:23:09.403Z,1022.47
2016-12-13T02:24:09.416Z,1022.45
2016-12-13T02:25:09.429Z,1022.4
2016-12-13T02:26:09.441Z,1022.36
2016-12-13T02:27:09.455Z,1022.28
2016-12-13T02:28:09.467Z,1022.24
2016-12-13T02:29:09.478Z,1022.25
2016-12-13T02:30:09.491Z,1022.18
2016-12-13T02:31:09.506Z,1022.14
2016-12-13T02:32:09.519Z,1022.11
2016-12-13T02:33:09.530Z,1022.11
2016-12-13T02:34:09.542Z,1022.13
2016-12-13T02:35:09.557Z,1022.16
2016-12-13T02:36:09.570Z,1022.16
2016-12-13T02:38:09.594Z,1022.18
2016-12-13T02:39:09.609Z,1022.19
2016-12-13T02:40:09.623Z,1022.27
2016-12-13T02:41:09.632Z,1022.27
2016-12-13T02:42:09.647Z,1022.25
2016-12-13T02:43:09.658Z,1022.26
2016-12-13T02:44:09.672Z,1022.24
2016-12-13T02:45:09.683Z,1022.2
2016-12-13T02:46:09.698Z,1022.22
2016-12-13T02:47:09.709Z,1022.24
2016-12-13T02:48:09.723Z,1022.23
2016-12-13T02:49:09.736Z,1022.23
2016-12-13T02:50:09.748Z,1022.24
2016-12-13T02:51:09.763Z,1022.24
2016-12-13T02:52:09.773Z,1022.15
2016-12-13T02:54:09.801Z,1022.19
2016-12-13T02:55:09.812Z,1022.17
2016-12-13T02:56:09.826Z,1022.13
2016-12-13T02:57:09.839Z,1022.17
2016-12-13T02:58:09.852Z,1022.13
2016-12-13T02:59:09.865Z,1022.17
2016-12-13T03:00:09.927Z,1022.15
2016-12-13T03:01:09.888Z,1022.14
2016-12-13T03:02:09.902Z,1022.16
2016-12-13T03:03:09.914Z,1022.07
2016-12-13T03:04:09.929Z,1022.08
2016-12-13T03:05:09.942Z,1022.08
2016-12-13T03:06:09.955Z,1022.09
2016-12-13T03:07:09.966Z,1022.03
2016-12-13T03:09:09.994Z,1021.94
2016-12-13T03:10:10.004Z,1021.96
2016-12-13T03:11:10.018Z,1021.91
2016-12-13T03:12:10.038Z,1021.94
2016-12-13T03:13:10.044Z,1021.95
2016-12-13T03:14:10.056Z,1021.91
2016-12-13T03:15:10.071Z,1021.9
2016-12-13T03:16:10.084Z,1021.9
2016-12-13T03:17:10.093Z,1021.94
2016-12-13T03:18:10.109Z,1021.91
2016-12-13T03:19:10.120Z,1021.94
2016-12-13T03:20:10.133Z,1021.95
2016-12-13T03:21:10.147Z,1021.91
2016-12-13T03:22:10.158Z,1021.89
2016-12-13T03:23:10.173Z,1021.86
2016-12-13T03:24:10.184Z,1021.88
2016-12-13T03:25:10.198Z,1021.9
2016-12-13T03:26:10.209Z,1021.9
2016-12-13T03:27:10.224Z,1021.85
2016-12-13T03:28:10.236Z,1021.85
2016-12-13T03:29:10.249Z,1021.8
2016-12-13T03:30:10.262Z,1021.82
2016-12-13T03:31:10.275Z,1021.76
2016-12-13T03:32:10.287Z,1021.81
2016-12-13T03:33:10.298Z,1021.75
2016-12-13T03:34:10.311Z,1021.67
2016-12-13T03:35:10.376Z,1021.7
2016-12-13T03:36:10.338Z,1021.66
2016-12-13T03:37:10.351Z,1021.61
2016-12-13T03:38:10.364Z,1021.6
2016-12-13T03:39:10.374Z,1021.59
2016-12-13T03:41:10.400Z,1021.57
2016-12-13T03:42:10.415Z,1021.58
2016-12-13T03:43:10.425Z,1021.59
2016-12-13T03:44:10.439Z,1021.59
2016-12-13T03:45:10.453Z,1021.55
2016-12-13T03:46:10.466Z,1021.59
2016-12-13T03:47:10.477Z,1021.58
2016-12-13T03:48:10.491Z,1021.56
2016-12-13T03:49:10.501Z,1021.57
2016-12-13T03:50:10.516Z,1021.58
2016-12-13T03:51:10.529Z,1021.58
2016-12-13T03:52:10.541Z,1021.6
2016-12-13T03:53:10.554Z,1021.57
2016-12-13T03:54:10.564Z,1021.61
2016-12-13T03:55:10.579Z,1021.61
2016-12-13T03:57:10.604Z,1021.6
2016-12-13T03:58:10.617Z,1021.64
2016-12-13T03:59:10.631Z,1021.64
2016-12-13T04:00:10.644Z,1021.68
2016-12-13T04:01:10.656Z,1021.68
2016-12-13T04:02:10.669Z,1021.68
2016-12-13T04:03:10.680Z,1021.65
2016-12-13T04:04:10.693Z,1021.67
2016-12-13T04:05:10.707Z,1021.67
2016-12-13T04:06:10.718Z,1021.66
2016-12-13T04:07:10.732Z,1021.76
2016-12-13T04:08:10.749Z,1021.76
2016-12-13T04:09:10.857Z,1021.76
2016-12-13T04:10:10.773Z,1021.77
2016-12-13T04:11:10.783Z,1021.74
2016-12-13T04:13:10.809Z,1021.73
2016-12-13T04:14:10.822Z,1021.74
2016-12-13T04:15:10.837Z,1021.79
2016-12-13T04:16:10.848Z,1021.77
2016-12-13T04:17:10.861Z,1021.8
2016-12-13T04:18:10.874Z,1021.77
2016-12-13T04:19:10.888Z,1021.81
2016-12-13T04:20:10.902Z,1021.84
2016-12-13T04:21:10.915Z,1021.88
2016-12-13T04:22:10.927Z,1021.86
2016-12-13T04:23:10.939Z,1021.87
2016-12-13T04:24:10.952Z,1021.84
2016-12-13T04:25:10.966Z,1021.84
2016-12-13T04:26:10.981Z,1021.79
2016-12-13T04:27:10.993Z,1021.73
2016-12-13T04:29:11.021Z,1021.73
2016-12-13T04:30:11.032Z,1021.74
2016-12-13T04:31:11.047Z,1021.7
2016-12-13T04:32:11.058Z,1021.76
2016-12-13T04:33:11.074Z,1021.75
2016-12-13T04:34:11.086Z,1021.72
2016-12-13T04:35:11.100Z,1021.74
2016-12-13T04:36:11.113Z,1021.72
2016-12-13T04:37:11.125Z,1021.68
2016-12-13T04:38:11.138Z,1021.67
2016-12-13T04:39:11.151Z,1021.63
2016-12-13T04:40:11.167Z,1021.62
2016-12-13T04:41:11.179Z,1021.6
2016-12-13T04:42:11.192Z,1021.65
2016-12-13T04:44:11.221Z,1021.68
2016-12-13T04:45:11.231Z,1021.66
2016-12-13T04:46:11.247Z,1021.66
2016-12-13T04:47:11.261Z,1021.66
2016-12-13T04:48:11.273Z,1021.73
2016-12-13T04:49:11.287Z,1021.71
2016-12-13T04:50:11.299Z,1021.7
2016-12-13T04:51:11.312Z,1021.71
2016-12-13T04:52:11.325Z,1021.75
2016-12-13T04:53:11.341Z,1021.74
2016-12-13T04:54:11.352Z,1021.74
2016-12-13T04:55:11.368Z,1021.71
2016-12-13T04:56:11.429Z,1021.69
2016-12-13T04:57:11.394Z,1021.66
2016-12-13T04:58:11.408Z,1021.62
2016-12-13T04:59:11.422Z,1021.59
2016-12-13T05:00:11.432Z,1021.58
2016-12-13T05:01:11.446Z,1021.59
2016-12-13T05:02:11.460Z,1021.6
2016-12-13T05:03:11.472Z,1021.58
2016-12-13T05:04:11.486Z,1021.6
2016-12-13T05:05:11.502Z,1021.63
2016-12-13T05:06:11.513Z,1021.66
2016-12-13T05:07:11.528Z,1021.68
2016-12-13T05:08:11.542Z,1021.65
2016-12-13T05:09:11.556Z,1021.6
2016-12-13T05:10:11.569Z,1021.65
2016-12-13T05:11:11.580Z,1021.64
2016-12-13T05:12:11.596Z,1021.66
2016-12-13T05:13:11.610Z,1021.62
2016-12-13T05:14:11.620Z,1021.67
2016-12-13T05:16:11.648Z,1021.66
2016-12-13T05:17:11.661Z,1021.7
2016-12-13T05:18:11.676Z,1021.69
2016-12-13T05:19:11.690Z,1021.66
2016-12-13T05:20:11.702Z,1021.72
2016-12-13T05:21:11.718Z,1021.71
2016-12-13T05:22:11.730Z,1021.68
2016-12-13T05:23:11.744Z,1021.7
2016-12-13T05:24:11.758Z,1021.65
2016-12-13T05:25:11.771Z,1021.63
2016-12-13T05:26:11.785Z,1021.62
2016-12-13T05:27:11.796Z,1021.58
2016-12-13T05:28:11.809Z,1021.55
2016-12-13T05:29:11.824Z,1021.57
2016-12-13T05:30:11.837Z,1021.53
2016-12-13T05:32:11.866Z,1021.44
2016-12-13T05:33:11.877Z,1021.42
2016-12-13T05:34:11.896Z,1021.37
2016-12-13T05:35:11.904Z,1021.38
2016-12-13T05:36:11.918Z,1021.38
2016-12-13T05:37:11.933Z,1021.37
2016-12-13T05:38:11.947Z,1021.37
2016-12-13T05:39:11.959Z,1021.37
2016-12-13T05:40:11.971Z,1021.38
2016-12-13T05:41:11.987Z,1021.36
2016-12-13T05:42:11.999Z,1021.34
2016-12-13T05:43:12.013Z,1021.37
2016-12-13T05:44:12.028Z,1021.43
2016-12-13T05:45:12.042Z,1021.39
2016-12-13T05:46:12.054Z,1021.32
2016-12-13T05:48:12.082Z,1021.34
2016-12-13T05:49:12.096Z,1021.32
2016-12-13T05:50:12.108Z,1021.35
2016-12-13T05:51:12.121Z,1021.39
2016-12-13T05:52:12.135Z,1021.43
2016-12-13T05:53:12.149Z,1021.42
2016-12-13T05:54:12.162Z,1021.41
2016-12-13T05:55:12.176Z,1021.45
2016-12-13T05:56:12.189Z,1021.42
2016-12-13T05:57:12.203Z,1021.39
2016-12-13T05:58:12.216Z,1021.4
2016-12-13T05:59:12.232Z,1021.42
2016-12-13T06:00:12.246Z,1021.41
2016-12-13T06:01:12.260Z,1021.42
2016-12-13T06:02:12.272Z,1021.41
2016-12-13T06:04:12.300Z,1021.39
2016-12-13T06:05:12.312Z,1021.41
2016-12-13T06:06:12.328Z,1021.39
2016-12-13T06:07:12.340Z,1021.42
2016-12-13T06:08:12.355Z,1021.41
2016-12-13T06:09:12.365Z,1021.39
2016-12-13T06:10:12.380Z,1021.38
2016-12-13T06:11:12.393Z,1021.39
2016-12-13T06:12:12.407Z,1021.37
2016-12-13T06:13:12.420Z,1021.32
2016-12-13T06:14:12.437Z,1021.31
2016-12-13T06:15:12.448Z,1021.33
2016-12-13T06:16:12.464Z,1021.3
2016-12-13T06:17:12.478Z,1021.3
2016-12-13T06:19:12.504Z,1021.25
2016-12-13T06:20:12.519Z,1021.28
2016-12-13T06:21:12.533Z,1021.25
2016-12-13T06:22:12.547Z,1021.23
2016-12-13T06:23:12.561Z,1021.2
2016-12-13T06:24:12.574Z,1021.14
2016-12-13T06:25:12.588Z,1021.13
2016-12-13T06:26:12.602Z,1021.14
2016-12-13T06:27:12.616Z,1021.16
2016-12-13T06:28:12.629Z,1021.17
2016-12-13T06:29:12.641Z,1021.13
2016-12-13T06:30:12.657Z,1021.2
2016-12-13T06:31:12.670Z,1021.21
2016-12-13T06:32:12.684Z,1021.31
2016-12-13T06:33:12.699Z,1021.3
2016-12-13T06:34:12.711Z,1021.39
2016-12-13T06:35:12.726Z,1021.47
2016-12-13T06:36:12.740Z,1021.45
2016-12-13T06:37:12.754Z,1021.46
2016-12-13T06:38:12.766Z,1021.45
2016-12-13T06:39:12.779Z,1021.4
2016-12-13T06:40:12.794Z,1021.42
2016-12-13T06:41:12.809Z,1021.41
2016-12-13T06:42:12.822Z,1021.44
2016-12-13T06:43:12.837Z,1021.52
2016-12-13T06:44:13.148Z,1021.51
2016-12-13T06:45:12.862Z,1021.49
2016-12-13T06:46:12.875Z,1021.49
2016-12-13T06:47:12.891Z,1021.48
2016-12-13T06:48:12.905Z,1021.47
2016-12-13T06:49:12.916Z,1021.44
2016-12-13T06:51:12.944Z,1021.47
2016-12-13T06:52:12.960Z,1021.47
2016-12-13T06:53:12.974Z,1021.49
2016-12-13T06:54:12.986Z,1021.5
2016-12-13T06:55:13.001Z,1021.46
2016-12-13T06:56:13.016Z,1021.48
2016-12-13T06:57:13.029Z,1021.44
2016-12-13T06:58:13.045Z,1021.48
2016-12-13T06:59:13.057Z,1021.46
2016-12-13T07:00:13.068Z,1021.48
2016-12-13T07:01:13.085Z,1021.47
2016-12-13T07:02:13.097Z,1021.46
2016-12-13T07:03:13.112Z,1021.56
2016-12-13T07:04:13.124Z,1021.55
2016-12-13T07:05:13.138Z,1021.53
2016-12-13T07:07:13.168Z,1021.5
2016-12-13T07:08:13.179Z,1021.49
2016-12-13T07:09:13.195Z,1021.52
2016-12-13T07:10:13.208Z,1021.5
2016-12-13T07:11:13.223Z,1021.45
2016-12-13T07:12:13.237Z,1021.46
2016-12-13T07:13:13.249Z,1021.52
2016-12-13T07:14:13.263Z,1021.44
2016-12-13T07:15:13.279Z,1021.54
2016-12-13T07:16:13.293Z,1021.58
2016-12-13T07:17:13.305Z,1021.54
2016-12-13T07:18:13.319Z,1021.5
2016-12-13T07:19:13.334Z,1021.46
2016-12-13T07:20:13.347Z,1021.46
2016-12-13T07:21:13.361Z,1021.47
2016-12-13T07:23:13.391Z,1021.53
2016-12-13T07:24:13.403Z,1021.54
2016-12-13T07:25:13.417Z,1021.56
2016-12-13T07:26:13.432Z,1021.5
2016-12-13T07:27:13.446Z,1021.43
2016-12-13T07:28:13.461Z,1021.49
2016-12-13T07:29:13.473Z,1021.51
2016-12-13T07:30:13.488Z,1021.47
2016-12-13T07:31:13.502Z,1021.46
2016-12-13T07:32:13.514Z,1021.47
2016-12-13T07:33:13.528Z,1021.45
2016-12-13T07:34:13.542Z,1021.45
2016-12-13T07:35:13.559Z,1021.42
2016-12-13T07:36:13.573Z,1021.42
2016-12-13T07:37:13.586Z,1021.38
2016-12-13T07:39:13.612Z,1021.48
2016-12-13T07:40:13.629Z,1021.53
2016-12-13T07:41:13.641Z,1021.57
2016-12-13T07:42:13.655Z,1021.55
2016-12-13T07:43:13.669Z,1021.53
2016-12-13T07:44:13.684Z,1021.56
2016-12-13T07:45:13.699Z,1021.53
2016-12-13T07:46:13.713Z,1021.54
2016-12-13T07:47:13.728Z,1021.52
2016-12-13T07:48:13.741Z,1021.53
2016-12-13T07:49:13.755Z,1021.53
2016-12-13T07:50:13.770Z,1021.58
2016-12-13T07:51:13.782Z,1021.56
2016-12-13T07:52:13.798Z,1021.59
2016-12-13T07:54:13.827Z,1021.64
2016-12-13T07:55:13.838Z,1021.61
2016-12-13T07:56:13.855Z,1021.6
2016-12-13T07:57:13.869Z,1021.59
2016-12-13T07:58:13.884Z,1021.58
2016-12-13T07:59:13.897Z,1021.58
2016-12-13T08:00:13.912Z,1021.57
2016-12-13T08:01:13.926Z,1021.59
2016-12-13T08:02:13.939Z,1021.58
2016-12-13T08:03:13.951Z,1021.61
2016-12-13T08:04:13.966Z,1021.65
2016-12-13T08:05:13.980Z,1021.73
2016-12-13T08:06:13.996Z,1021.71
2016-12-13T08:07:14.008Z,1021.67
2016-12-13T08:08:14.025Z,1021.72
2016-12-13T08:09:14.037Z,1021.76
2016-12-13T08:10:14.052Z,1021.73
2016-12-13T08:11:14.067Z,1021.67
2016-12-13T08:12:14.080Z,1021.64
2016-12-13T08:13:14.095Z,1021.63
2016-12-13T08:14:14.109Z,1021.6
2016-12-13T08:15:14.123Z,1021.56
2016-12-13T08:16:14.138Z,1021.58
2016-12-13T08:17:14.151Z,1021.57
2016-12-13T08:18:14.166Z,1021.59
2016-12-13T08:19:14.178Z,1021.61
2016-12-13T08:20:14.193Z,1021.61
2016-12-13T08:21:14.208Z,1021.59
2016-12-13T08:22:14.221Z,1021.6
2016-12-13T08:23:14.235Z,1021.53
2016-12-13T08:24:14.251Z,1021.56
2016-12-13T08:26:14.278Z,1021.57
2016-12-13T08:27:14.295Z,1021.54
2016-12-13T08:28:14.308Z,1021.55
2016-12-13T08:29:14.321Z,1021.58
2016-12-13T08:30:14.337Z,1021.62
2016-12-13T08:31:14.352Z,1021.59
2016-12-13T08:32:14.365Z,1021.52
2016-12-13T08:33:14.379Z,1021.53
2016-12-13T08:34:14.393Z,1021.57
2016-12-13T08:35:14.409Z,1021.56
2016-12-13T08:36:14.423Z,1021.59
2016-12-13T08:37:14.438Z,1021.58
2016-12-13T08:38:14.451Z,1021.58
2016-12-13T08:39:14.467Z,1021.56
2016-12-13T08:40:14.482Z,1021.55
2016-12-13T08:42:14.511Z,1021.5
2016-12-13T08:43:14.525Z,1021.48
2016-12-13T08:44:14.537Z,1021.5
2016-12-13T08:45:14.552Z,1021.5
2016-12-13T08:46:14.568Z,1021.51
2016-12-13T08:47:14.581Z,1021.52
2016-12-13T08:48:14.595Z,1021.5
2016-12-13T08:49:14.612Z,1021.46
2016-12-13T08:50:14.626Z,1021.48
2016-12-13T08:51:14.641Z,1021.48
2016-12-13T08:52:14.656Z,1021.5
2016-12-13T08:53:14.670Z,1021.53
2016-12-13T08:54:14.682Z,1021.51
2016-12-13T08:55:14.697Z,1021.52
2016-12-13T08:56:14.712Z,1021.49
2016-12-13T08:58:14.792Z,1021.49
2016-12-13T08:59:14.757Z,1021.5
2016-12-13T09:00:14.822Z,1021.43
2016-12-13T09:01:14.786Z,1021.43
2016-12-13T09:02:14.799Z,1021.42
2016-12-13T09:03:14.814Z,1021.4
2016-12-13T09:04:14.829Z,1021.41
2016-12-13T09:05:14.845Z,1021.4
2016-12-13T09:06:14.857Z,1021.42
2016-12-13T09:07:14.872Z,1021.44
2016-12-13T09:08:14.886Z,1021.41
2016-12-13T09:09:14.901Z,1021.4
2016-12-13T09:10:14.917Z,1021.39
2016-12-13T09:11:14.932Z,1021.38
2016-12-13T09:12:14.945Z,1021.41
2016-12-13T09:14:14.975Z,1021.41
2016-12-13T09:15:14.992Z,1021.42
2016-12-13T09:16:15.006Z,1021.39
2016-12-13T09:17:15.019Z,1021.39
2016-12-13T09:18:15.034Z,1021.44
2016-12-13T09:19:15.050Z,1021.41
2016-12-13T09:20:15.063Z,1021.43
2016-12-13T09:21:15.080Z,1021.4
2016-12-13T09:22:15.095Z,1021.43
2016-12-13T09:23:15.107Z,1021.41
2016-12-13T09:24:15.122Z,1021.39
2016-12-13T09:25:15.139Z,1021.38
2016-12-13T09:26:15.153Z,1021.38
2016-12-13T09:27:15.167Z,1021.4
2016-12-13T09:29:15.197Z,1021.37
2016-12-13T09:30:15.212Z,1021.36
2016-12-13T09:31:15.279Z,1021.35
2016-12-13T09:32:15.242Z,1021.34
2016-12-13T09:33:15.258Z,1021.33
2016-12-13T09:34:15.273Z,1021.31
2016-12-13T09:35:15.337Z,1021.3
2016-12-13T09:36:15.304Z,1021.28
2016-12-13T09:37:15.316Z,1021.22
2016-12-13T09:38:15.331Z,1021.23
2016-12-13T09:39:15.348Z,1021.25
2016-12-13T09:40:15.364Z,1021.2
2016-12-13T09:41:15.378Z,1021.2
2016-12-13T09:42:15.391Z,1021.2
2016-12-13T09:43:15.409Z,1021.13
2016-12-13T09:44:15.424Z,1021.16
2016-12-13T09:45:15.438Z,1021.15
2016-12-13T09:46:15.454Z,1021.15
2016-12-13T09:47:15.467Z,1021.1
2016-12-13T09:48:15.483Z,1021.11
2016-12-13T09:49:15.496Z,1021.13
2016-12-13T09:50:15.514Z,1021.14
2016-12-13T09:51:15.527Z,1021.11
2016-12-13T09:52:15.541Z,1021.09
2016-12-13T09:53:15.558Z,1021.11
2016-12-13T09:54:15.574Z,1021.11
2016-12-13T09:55:15.590Z,1021.08
2016-12-13T09:56:15.602Z,1021.05
2016-12-13T09:57:15.617Z,1021.06
2016-12-13T09:58:15.636Z,1021.06
2016-12-13T09:59:15.647Z,1021.06
2016-12-13T10:01:15.680Z,1021.08
2016-12-13T10:02:15.695Z,1021.06
2016-12-13T10:03:15.710Z,1021.01
2016-12-13T10:04:15.774Z,1021.03
2016-12-13T10:05:15.742Z,1021.04
2016-12-13T10:06:15.755Z,1021
2016-12-13T10:07:15.772Z,1020.99
2016-12-13T10:08:15.786Z,1021
2016-12-13T10:09:15.802Z,1020.96
2016-12-13T10:10:15.816Z,1020.96
2016-12-13T10:11:15.832Z,1020.97
2016-12-13T10:12:15.849Z,1020.97
2016-12-13T10:13:15.865Z,1020.97
2016-12-13T10:14:15.880Z,1020.94
2016-12-13T10:15:15.896Z,1020.95
2016-12-13T10:17:15.932Z,1020.93
2016-12-13T10:18:15.940Z,1020.92
2016-12-13T10:19:15.958Z,1020.93
2016-12-13T10:20:15.973Z,1020.92
2016-12-13T10:21:15.986Z,1020.9
2016-12-13T10:22:16.004Z,1020.92
2016-12-13T10:23:16.017Z,1020.92
2016-12-13T10:24:16.035Z,1020.88
2016-12-13T10:25:16.050Z,1020.88
2016-12-13T10:26:16.064Z,1020.88
2016-12-13T10:27:16.082Z,1020.84
2016-12-13T10:28:16.098Z,1020.86
2016-12-13T10:29:16.113Z,1020.85
2016-12-13T10:30:16.179Z,1020.87
2016-12-13T10:31:16.144Z,1020.84
2016-12-13T10:33:16.173Z,1020.86
2016-12-13T10:34:16.191Z,1020.85
2016-12-13T10:35:16.205Z,1020.8
2016-12-13T10:36:16.222Z,1020.82
2016-12-13T10:37:16.238Z,1020.8
2016-12-13T10:38:16.252Z,1020.75
2016-12-13T10:39:16.270Z,1020.8
2016-12-13T10:40:16.285Z,1020.8
2016-12-13T10:41:16.301Z,1020.8
2016-12-13T10:42:16.315Z,1020.75
2016-12-13T10:43:16.330Z,1020.77
2016-12-13T10:44:16.348Z,1020.79
2016-12-13T10:45:16.364Z,1020.83
2016-12-13T10:46:16.378Z,1020.78
2016-12-13T10:47:16.396Z,1020.79
2016-12-13T10:49:16.428Z,1020.71
2016-12-13T10:50:16.592Z,1020.7
2016-12-13T10:51:16.457Z,1020.68
2016-12-13T10:52:16.475Z,1020.7
2016-12-13T10:53:16.489Z,1020.69
2016-12-13T10:54:16.505Z,1020.65
2016-12-13T10:55:16.520Z,1020.63
2016-12-13T10:56:16.539Z,1020.65
2016-12-13T10:57:16.553Z,1020.62
2016-12-13T10:58:16.568Z,1020.65
2016-12-13T10:59:16.587Z,1020.6
2016-12-13T11:00:16.603Z,1020.61
2016-12-13T11:01:16.619Z,1020.62
2016-12-13T11:02:16.633Z,1020.6
2016-12-13T11:04:16.666Z,1020.6
2016-12-13T11:05:16.683Z,1020.64
2016-12-13T11:06:16.699Z,1020.64
2016-12-13T11:07:16.716Z,1020.61
2016-12-13T11:08:16.730Z,1020.58
2016-12-13T11:09:16.745Z,1020.59
2016-12-13T11:10:16.764Z,1020.53
2016-12-13T11:11:16.778Z,1020.56
2016-12-13T11:12:16.795Z,1020.54
2016-12-13T11:13:16.810Z,1020.53
2016-12-13T11:14:16.826Z,1020.53
2016-12-13T11:15:16.842Z,1020.49
2016-12-13T11:16:16.859Z,1020.44
2016-12-13T11:17:16.876Z,1020.47
2016-12-13T11:18:16.890Z,1020.5
2016-12-13T11:19:16.908Z,1020.53
2016-12-13T11:20:16.923Z,1020.51
2016-12-13T11:21:16.940Z,1020.49
2016-12-13T11:22:16.956Z,1020.49
2016-12-13T11:23:16.970Z,1020.44
2016-12-13T11:24:16.988Z,1020.45
2016-12-13T11:25:17.003Z,1020.42
2016-12-13T11:26:17.021Z,1020.42
2016-12-13T11:27:17.034Z,1020.42
2016-12-13T11:28:17.053Z,1020.43
2016-12-13T11:29:17.071Z,1020.45
2016-12-13T11:30:17.086Z,1020.42
2016-12-13T11:31:17.101Z,1020.38
2016-12-13T11:32:17.115Z,1020.37
2016-12-13T11:33:17.132Z,1020.42
2016-12-13T11:34:17.148Z,1020.38
2016-12-13T11:36:17.180Z,1020.41
2016-12-13T11:37:17.197Z,1020.38
2016-12-13T11:38:17.212Z,1020.43
2016-12-13T11:39:17.229Z,1020.36
2016-12-13T11:40:17.247Z,1020.4
2016-12-13T11:41:17.263Z,1020.37
2016-12-13T11:42:17.277Z,1020.3
2016-12-13T11:43:17.293Z,1020.3
2016-12-13T11:44:17.310Z,1020.29
2016-12-13T11:45:17.328Z,1020.27
2016-12-13T11:46:17.342Z,1020.24
2016-12-13T11:47:17.361Z,1020.24
2016-12-13T11:48:17.377Z,1020.23
2016-12-13T11:49:17.392Z,1020.22
2016-12-13T11:50:17.407Z,1020.15
2016-12-13T11:52:17.442Z,1020.12
2016-12-13T11:53:17.457Z,1020.17
2016-12-13T11:54:17.472Z,1020.11
2016-12-13T11:55:17.491Z,1020.17
2016-12-13T11:56:17.506Z,1020.14
2016-12-13T11:57:17.521Z,1020.16
2016-12-13T11:58:17.539Z,1020.11
2016-12-13T11:59:17.554Z,1020.1
2016-12-13T12:00:17.570Z,1020.1
2016-12-13T12:01:17.588Z,1020.09
2016-12-13T12:02:17.604Z,1020.1
2016-12-13T12:03:17.620Z,1020.07
2016-12-13T12:04:17.638Z,1020.04
2016-12-13T12:05:17.654Z,1020.06
2016-12-13T12:06:17.669Z,1020.06
2016-12-13T12:08:17.701Z,1020.02
2016-12-13T12:09:17.770Z,1020.04
2016-12-13T12:10:17.735Z,1020
2016-12-13T12:11:17.752Z,1019.99
2016-12-13T12:12:17.769Z,1019.96
2016-12-13T12:13:17.784Z,1020.01
2016-12-13T12:14:17.802Z,1020
2016-12-13T12:15:17.867Z,1019.97
2016-12-13T12:16:17.836Z,1019.94
2016-12-13T12:17:17.853Z,1019.92
2016-12-13T12:18:17.866Z,1019.93
2016-12-13T12:19:17.883Z,1019.84
2016-12-13T12:20:17.900Z,1019.85
2016-12-13T12:21:17.917Z,1019.82
2016-12-13T12:22:17.935Z,1019.8
2016-12-13T12:24:17.968Z,1019.8
2016-12-13T12:25:17.983Z,1019.77
2016-12-13T12:26:18.000Z,1019.76
2016-12-13T12:27:18.018Z,1019.76
2016-12-13T12:28:18.034Z,1019.79
2016-12-13T12:29:18.049Z,1019.82
2016-12-13T12:30:18.068Z,1019.8
2016-12-13T12:31:18.083Z,1019.83
2016-12-13T12:32:18.100Z,1019.81
2016-12-13T12:33:18.118Z,1019.77
2016-12-13T12:34:18.134Z,1019.8
2016-12-13T12:35:18.152Z,1019.78
2016-12-13T12:36:18.218Z,1019.77
2016-12-13T12:37:18.187Z,1019.75
2016-12-13T12:39:18.219Z,1019.72
2016-12-13T12:40:18.234Z,1019.7
2016-12-13T12:41:18.252Z,1019.67
2016-12-13T12:42:18.267Z,1019.7
2016-12-13T12:43:18.284Z,1019.67
2016-12-13T12:44:18.300Z,1019.68
2016-12-13T12:45:18.320Z,1019.65
2016-12-13T12:46:18.334Z,1019.66
2016-12-13T12:47:18.350Z,1019.68
2016-12-13T12:48:18.369Z,1019.63